sensor_id;sensor_type;location;lat;lon;timestamp;P1;durP1;ratioP1;P2;durP2;ratioP2
23718;SDS011;43322;52.230;5.702;2023-08-17T00:01:06;4.75;;;2.80;;
23718;SDS011;43322;52.230;5.702;2023-08-17T00:03:33;6.30;;;2.63;;
23718;SDS011;43322;52.230;5.702;2023-08-17T00:06:00;3.70;;;2.60;;
23718;SDS011;43322;52.230;5.702;2023-08-17T00:08:26;4.05;;;2.58;;
23718;SDS011;43322;52.230;5.702;2023-08-17T00:10:54;5.72;;;2.63;;
23718;SDS011;43322;52.230;5.702;2023-08-17T00:13:21;4.85;;;2.65;;
23718;SDS011;43322;52.230;5.702;2023-08-17T00:15:48;3.00;;;2.50;;
23718;SDS011;43322;52.230;5.702;2023-08-17T00:18:15;7.70;;;2.50;;
23718;SDS011;43322;52.230;5.702;2023-08-17T00:20:41;4.15;;;2.60;;
23718;SDS011;43322;52.230;5.702;2023-08-17T00:23:09;4.53;;;2.03;;
23718;SDS011;43322;52.230;5.702;2023-08-17T00:25:36;3.38;;;2.20;;
23718;SDS011;43322;52.230;5.702;2023-08-17T00:28:04;3.38;;;2.30;;
23718;SDS011;43322;52.230;5.702;2023-08-17T00:30:31;3.53;;;2.03;;
23718;SDS011;43322;52.230;5.702;2023-08-17T00:33:01;5.32;;;2.30;;
23718;SDS011;43322;52.230;5.702;2023-08-17T00:35:27;2.58;;;2.25;;
23718;SDS011;43322;52.230;5.702;2023-08-17T00:37:54;6.00;;;2.17;;
23718;SDS011;43322;52.230;5.702;2023-08-17T00:40:21;4.22;;;2.10;;
23718;SDS011;43322;52.230;5.702;2023-08-17T00:42:48;3.55;;;2.42;;
23718;SDS011;43322;52.230;5.702;2023-08-17T00:45:17;3.42;;;2.20;;
23718;SDS011;43322;52.230;5.702;2023-08-17T00:47:43;5.05;;;2.17;;
23718;SDS011;43322;52.230;5.702;2023-08-17T00:50:10;3.05;;;2.00;;
23718;SDS011;43322;52.230;5.702;2023-08-17T00:52:37;3.20;;;2.30;;
23718;SDS011;43322;52.230;5.702;2023-08-17T00:55:05;5.18;;;3.30;;
23718;SDS011;43322;52.230;5.702;2023-08-17T00:57:32;2.13;;;1.90;;
23718;SDS011;43322;52.230;5.702;2023-08-17T00:59:59;4.30;;;2.08;;
23718;SDS011;43322;52.230;5.702;2023-08-17T01:02:27;4.45;;;2.22;;
23718;SDS011;43322;52.230;5.702;2023-08-17T01:04:54;3.30;;;1.90;;
23718;SDS011;43322;52.230;5.702;2023-08-17T01:07:21;2.40;;;2.20;;
23718;SDS011;43322;52.230;5.702;2023-08-17T01:09:48;3.42;;;1.80;;
23718;SDS011;43322;52.230;5.702;2023-08-17T01:12:17;3.05;;;2.00;;
23718;SDS011;43322;52.230;5.702;2023-08-17T01:14:55;4.75;;;2.22;;
23718;SDS011;43322;52.230;5.702;2023-08-17T01:17:32;2.95;;;2.10;;
23718;SDS011;43322;52.230;5.702;2023-08-17T01:20:03;5.10;;;2.30;;
23718;SDS011;43322;52.230;5.702;2023-08-17T01:22:34;4.22;;;2.05;;
23718;SDS011;43322;52.230;5.702;2023-08-17T01:25:04;4.95;;;2.20;;
23718;SDS011;43322;52.230;5.702;2023-08-17T01:27:33;4.15;;;2.00;;
23718;SDS011;43322;52.230;5.702;2023-08-17T01:30:03;5.00;;;2.30;;
23718;SDS011;43322;52.230;5.702;2023-08-17T01:32:32;3.92;;;2.30;;
23718;SDS011;43322;52.230;5.702;2023-08-17T01:35:05;4.32;;;2.10;;
23718;SDS011;43322;52.230;5.702;2023-08-17T01:37:38;5.90;;;1.95;;
23718;SDS011;43322;52.230;5.702;2023-08-17T01:40:09;3.70;;;2.50;;
23718;SDS011;43322;52.230;5.702;2023-08-17T01:42:38;3.83;;;2.25;;
23718;SDS011;43322;52.230;5.702;2023-08-17T01:45:05;2.65;;;2.05;;
23718;SDS011;43322;52.230;5.702;2023-08-17T01:47:33;3.58;;;2.03;;
23718;SDS011;43322;52.230;5.702;2023-08-17T01:50:00;3.10;;;2.20;;
23718;SDS011;43322;52.230;5.702;2023-08-17T01:52:27;2.90;;;2.33;;
23718;SDS011;43322;52.230;5.702;2023-08-17T01:54:54;4.95;;;2.20;;
23718;SDS011;43322;52.230;5.702;2023-08-17T01:57:22;8.00;;;2.38;;
23718;SDS011;43322;52.230;5.702;2023-08-17T01:59:49;6.47;;;2.88;;
23718;SDS011;43322;52.230;5.702;2023-08-17T02:02:15;3.83;;;2.42;;
23718;SDS011;43322;52.230;5.702;2023-08-17T02:04:42;2.72;;;2.15;;
23718;SDS011;43322;52.230;5.702;2023-08-17T02:07:09;3.67;;;2.72;;
23718;SDS011;43322;52.230;5.702;2023-08-17T02:09:35;4.32;;;2.20;;
23718;SDS011;43322;52.230;5.702;2023-08-17T02:12:02;3.65;;;2.55;;
23718;SDS011;43322;52.230;5.702;2023-08-17T02:14:31;6.65;;;2.55;;
23718;SDS011;43322;52.230;5.702;2023-08-17T02:16:57;3.35;;;2.30;;
23718;SDS011;43322;52.230;5.702;2023-08-17T02:19:24;3.92;;;1.95;;
23718;SDS011;43322;52.230;5.702;2023-08-17T02:21:50;4.10;;;2.33;;
23718;SDS011;43322;52.230;5.702;2023-08-17T02:24:17;3.83;;;2.50;;
23718;SDS011;43322;52.230;5.702;2023-08-17T02:26:44;3.55;;;2.33;;
23718;SDS011;43322;52.230;5.702;2023-08-17T02:29:10;4.00;;;2.13;;
23718;SDS011;43322;52.230;5.702;2023-08-17T02:31:38;3.47;;;2.30;;
23718;SDS011;43322;52.230;5.702;2023-08-17T02:34:05;4.97;;;2.50;;
23718;SDS011;43322;52.230;5.702;2023-08-17T02:36:33;8.90;;;2.72;;
23718;SDS011;43322;52.230;5.702;2023-08-17T02:38:59;3.05;;;2.00;;
23718;SDS011;43322;52.230;5.702;2023-08-17T02:41:26;3.92;;;2.78;;
23718;SDS011;43322;52.230;5.702;2023-08-17T02:43:53;5.15;;;2.30;;
23718;SDS011;43322;52.230;5.702;2023-08-17T02:46:19;4.28;;;2.30;;
23718;SDS011;43322;52.230;5.702;2023-08-17T02:48:47;2.40;;;2.20;;
23718;SDS011;43322;52.230;5.702;2023-08-17T02:51:14;4.85;;;2.38;;
23718;SDS011;43322;52.230;5.702;2023-08-17T02:53:41;5.43;;;2.60;;
23718;SDS011;43322;52.230;5.702;2023-08-17T02:56:08;4.35;;;2.75;;
23718;SDS011;43322;52.230;5.702;2023-08-17T02:58:36;2.38;;;2.05;;
23718;SDS011;43322;52.230;5.702;2023-08-17T03:01:05;5.30;;;2.42;;
23718;SDS011;43322;52.230;5.702;2023-08-17T03:03:31;5.68;;;2.78;;
23718;SDS011;43322;52.230;5.702;2023-08-17T03:05:59;5.13;;;2.28;;
23718;SDS011;43322;52.230;5.702;2023-08-17T03:08:26;3.38;;;2.20;;
23718;SDS011;43322;52.230;5.702;2023-08-17T03:10:53;6.72;;;2.85;;
23718;SDS011;43322;52.230;5.702;2023-08-17T03:13:20;4.25;;;2.85;;
23718;SDS011;43322;52.230;5.702;2023-08-17T03:15:46;3.05;;;2.70;;
23718;SDS011;43322;52.230;5.702;2023-08-17T03:18:13;6.80;;;2.60;;
23718;SDS011;43322;52.230;5.702;2023-08-17T03:20:39;6.22;;;2.92;;
23718;SDS011;43322;52.230;5.702;2023-08-17T03:23:07;4.68;;;2.65;;
23718;SDS011;43322;52.230;5.702;2023-08-17T03:25:34;6.05;;;2.47;;
23718;SDS011;43322;52.230;5.702;2023-08-17T03:28:01;6.22;;;2.67;;
23718;SDS011;43322;52.230;5.702;2023-08-17T03:30:27;3.83;;;2.80;;
23718;SDS011;43322;52.230;5.702;2023-08-17T03:32:54;3.17;;;2.58;;
23718;SDS011;43322;52.230;5.702;2023-08-17T03:35:21;2.78;;;2.58;;
23718;SDS011;43322;52.230;5.702;2023-08-17T03:37:47;4.88;;;2.58;;
23718;SDS011;43322;52.230;5.702;2023-08-17T03:40:15;6.78;;;3.00;;
23718;SDS011;43322;52.230;5.702;2023-08-17T03:42:42;5.22;;;2.67;;
23718;SDS011;43322;52.230;5.702;2023-08-17T03:45:09;3.92;;;3.00;;
23718;SDS011;43322;52.230;5.702;2023-08-17T03:47:36;5.63;;;2.42;;
23718;SDS011;43322;52.230;5.702;2023-08-17T03:50:02;3.63;;;2.72;;
23718;SDS011;43322;52.230;5.702;2023-08-17T03:52:29;5.95;;;2.65;;
23718;SDS011;43322;52.230;5.702;2023-08-17T03:54:56;4.05;;;2.65;;
23718;SDS011;43322;52.230;5.702;2023-08-17T03:57:24;6.63;;;2.85;;
23718;SDS011;43322;52.230;5.702;2023-08-17T03:59:51;5.78;;;2.60;;
23718;SDS011;43322;52.230;5.702;2023-08-17T04:02:17;7.25;;;2.85;;
23718;SDS011;43322;52.230;5.702;2023-08-17T04:04:44;2.50;;;2.30;;
23718;SDS011;43322;52.230;5.702;2023-08-17T04:07:11;3.15;;;2.75;;
23718;SDS011;43322;52.230;5.702;2023-08-17T04:09:37;4.30;;;2.55;;
23718;SDS011;43322;52.230;5.702;2023-08-17T04:12:04;5.25;;;2.63;;
23718;SDS011;43322;52.230;5.702;2023-08-17T04:14:32;4.47;;;2.33;;
23718;SDS011;43322;52.230;5.702;2023-08-17T04:16:59;9.05;;;2.50;;
23718;SDS011;43322;52.230;5.702;2023-08-17T04:19:26;2.50;;;2.30;;
23718;SDS011;43322;52.230;5.702;2023-08-17T04:21:52;5.75;;;2.65;;
23718;SDS011;43322;52.230;5.702;2023-08-17T04:24:19;6.32;;;2.28;;
23718;SDS011;43322;52.230;5.702;2023-08-17T04:26:46;5.45;;;2.58;;
23718;SDS011;43322;52.230;5.702;2023-08-17T04:29:12;2.35;;;2.15;;
23718;SDS011;43322;52.230;5.702;2023-08-17T04:31:40;7.57;;;2.42;;
23718;SDS011;43322;52.230;5.702;2023-08-17T04:34:07;6.00;;;3.03;;
23718;SDS011;43322;52.230;5.702;2023-08-17T04:36:33;3.88;;;2.85;;
23718;SDS011;43322;52.230;5.702;2023-08-17T04:39:00;2.92;;;2.30;;
23718;SDS011;43322;52.230;5.702;2023-08-17T04:41:27;4.13;;;2.28;;
23718;SDS011;43322;52.230;5.702;2023-08-17T04:43:53;3.20;;;2.30;;
23718;SDS011;43322;52.230;5.702;2023-08-17T04:46:20;5.28;;;2.63;;
23718;SDS011;43322;52.230;5.702;2023-08-17T04:48:48;4.43;;;2.65;;
23718;SDS011;43322;52.230;5.702;2023-08-17T04:51:15;4.43;;;2.70;;
23718;SDS011;43322;52.230;5.702;2023-08-17T04:53:41;4.93;;;2.58;;
23718;SDS011;43322;52.230;5.702;2023-08-17T04:56:08;8.68;;;3.10;;
23718;SDS011;43322;52.230;5.702;2023-08-17T04:58:34;3.08;;;2.78;;
23718;SDS011;43322;52.230;5.702;2023-08-17T05:01:01;4.78;;;2.70;;
23718;SDS011;43322;52.230;5.702;2023-08-17T05:03:28;4.20;;;2.60;;
23718;SDS011;43322;52.230;5.702;2023-08-17T05:05:57;3.95;;;2.60;;
23718;SDS011;43322;52.230;5.702;2023-08-17T05:08:24;5.30;;;2.95;;
23718;SDS011;43322;52.230;5.702;2023-08-17T05:10:50;6.28;;;2.70;;
23718;SDS011;43322;52.230;5.702;2023-08-17T05:13:17;2.95;;;2.58;;
23718;SDS011;43322;52.230;5.702;2023-08-17T05:15:44;6.32;;;2.78;;
23718;SDS011;43322;52.230;5.702;2023-08-17T05:18:11;3.15;;;2.70;;
23718;SDS011;43322;52.230;5.702;2023-08-17T05:20:37;4.32;;;2.60;;
23718;SDS011;43322;52.230;5.702;2023-08-17T05:23:05;4.40;;;2.80;;
23718;SDS011;43322;52.230;5.702;2023-08-17T05:25:32;5.78;;;2.85;;
23718;SDS011;43322;52.230;5.702;2023-08-17T05:27:59;7.68;;;3.05;;
23718;SDS011;43322;52.230;5.702;2023-08-17T05:30:26;3.13;;;2.83;;
23718;SDS011;43322;52.230;5.702;2023-08-17T05:32:52;3.67;;;2.47;;
23718;SDS011;43322;52.230;5.702;2023-08-17T05:35:19;5.10;;;2.92;;
23718;SDS011;43322;52.230;5.702;2023-08-17T05:37:46;7.78;;;3.13;;
23718;SDS011;43322;52.230;5.702;2023-08-17T05:40:14;6.28;;;2.75;;
23718;SDS011;43322;52.230;5.702;2023-08-17T05:42:41;5.03;;;2.80;;
23718;SDS011;43322;52.230;5.702;2023-08-17T05:45:08;6.22;;;3.05;;
23718;SDS011;43322;52.230;5.702;2023-08-17T05:47:35;7.43;;;3.50;;
23718;SDS011;43322;52.230;5.702;2023-08-17T05:50:02;4.72;;;2.90;;
23718;SDS011;43322;52.230;5.702;2023-08-17T05:52:28;2.80;;;2.60;;
23718;SDS011;43322;52.230;5.702;2023-08-17T05:54:55;5.00;;;2.60;;
23718;SDS011;43322;52.230;5.702;2023-08-17T05:57:23;3.25;;;2.60;;
23718;SDS011;43322;52.230;5.702;2023-08-17T05:59:50;4.32;;;2.63;;
23718;SDS011;43322;52.230;5.702;2023-08-17T06:02:16;4.55;;;2.90;;
23718;SDS011;43322;52.230;5.702;2023-08-17T06:04:43;4.50;;;3.42;;
23718;SDS011;43322;52.230;5.702;2023-08-17T06:07:09;5.07;;;3.03;;
23718;SDS011;43322;52.230;5.702;2023-08-17T06:09:36;8.80;;;3.65;;
23718;SDS011;43322;52.230;5.702;2023-08-17T06:12:03;6.20;;;3.17;;
23718;SDS011;43322;52.230;5.702;2023-08-17T06:14:32;6.63;;;3.22;;
23718;SDS011;43322;52.230;5.702;2023-08-17T06:16:59;4.53;;;3.35;;
23718;SDS011;43322;52.230;5.702;2023-08-17T06:19:26;5.05;;;2.95;;
23718;SDS011;43322;52.230;5.702;2023-08-17T06:21:53;5.32;;;3.40;;
23718;SDS011;43322;52.230;5.702;2023-08-17T06:24:19;5.82;;;3.28;;
23718;SDS011;43322;52.230;5.702;2023-08-17T06:26:46;6.07;;;3.13;;
23718;SDS011;43322;52.230;5.702;2023-08-17T06:29:12;5.22;;;3.10;;
23718;SDS011;43322;52.230;5.702;2023-08-17T06:31:41;5.57;;;3.33;;
23718;SDS011;43322;52.230;5.702;2023-08-17T06:34:08;4.05;;;3.50;;
23718;SDS011;43322;52.230;5.702;2023-08-17T06:36:37;3.95;;;3.15;;
23718;SDS011;43322;52.230;5.702;2023-08-17T06:39:04;4.32;;;3.33;;
23718;SDS011;43322;52.230;5.702;2023-08-17T06:41:31;7.93;;;3.50;;
23718;SDS011;43322;52.230;5.702;2023-08-17T06:43:57;7.25;;;3.88;;
23718;SDS011;43322;52.230;5.702;2023-08-17T06:46:24;4.13;;;3.35;;
23718;SDS011;43322;52.230;5.702;2023-08-17T06:48:54;3.75;;;2.95;;
23718;SDS011;43322;52.230;5.702;2023-08-17T06:51:20;3.78;;;3.40;;
23718;SDS011;43322;52.230;5.702;2023-08-17T06:53:47;6.05;;;3.30;;
23718;SDS011;43322;52.230;5.702;2023-08-17T06:56:14;5.95;;;3.53;;
23718;SDS011;43322;52.230;5.702;2023-08-17T06:58:40;4.28;;;3.00;;
23718;SDS011;43322;52.230;5.702;2023-08-17T07:01:07;4.10;;;3.00;;
23718;SDS011;43322;52.230;5.702;2023-08-17T07:03:34;5.10;;;3.17;;
23718;SDS011;43322;52.230;5.702;2023-08-17T07:06:02;4.32;;;3.05;;
23718;SDS011;43322;52.230;5.702;2023-08-17T07:08:29;7.47;;;3.60;;
23718;SDS011;43322;52.230;5.702;2023-08-17T07:10:56;8.15;;;3.47;;
23718;SDS011;43322;52.230;5.702;2023-08-17T07:13:23;3.20;;;2.70;;
23718;SDS011;43322;52.230;5.702;2023-08-17T07:15:50;5.22;;;2.88;;
23718;SDS011;43322;52.230;5.702;2023-08-17T07:18:16;3.35;;;2.50;;
23718;SDS011;43322;52.230;5.702;2023-08-17T07:20:43;3.40;;;2.90;;
23718;SDS011;43322;52.230;5.702;2023-08-17T07:23:11;3.97;;;2.75;;
23718;SDS011;43322;52.230;5.702;2023-08-17T07:25:37;7.15;;;2.75;;
23718;SDS011;43322;52.230;5.702;2023-08-17T07:28:04;5.60;;;2.78;;
23718;SDS011;43322;52.230;5.702;2023-08-17T07:30:31;6.35;;;2.90;;
23718;SDS011;43322;52.230;5.702;2023-08-17T07:32:58;5.78;;;2.95;;
23718;SDS011;43322;52.230;5.702;2023-08-17T07:35:25;2.70;;;2.50;;
23718;SDS011;43322;52.230;5.702;2023-08-17T07:37:51;4.72;;;2.72;;
23718;SDS011;43322;52.230;5.702;2023-08-17T07:40:19;6.38;;;2.80;;
23718;SDS011;43322;52.230;5.702;2023-08-17T07:42:46;4.43;;;2.50;;
23718;SDS011;43322;52.230;5.702;2023-08-17T07:45:13;6.03;;;2.75;;
23718;SDS011;43322;52.230;5.702;2023-08-17T07:47:40;5.65;;;2.58;;
23718;SDS011;43322;52.230;5.702;2023-08-17T07:50:07;7.85;;;2.67;;
23718;SDS011;43322;52.230;5.702;2023-08-17T07:52:34;6.22;;;2.10;;
23718;SDS011;43322;52.230;5.702;2023-08-17T07:55:01;6.80;;;2.47;;
23718;SDS011;43322;52.230;5.702;2023-08-17T07:57:29;4.70;;;2.30;;
23718;SDS011;43322;52.230;5.702;2023-08-17T07:59:56;4.85;;;2.42;;
23718;SDS011;43322;52.230;5.702;2023-08-17T08:02:23;7.70;;;2.63;;
23718;SDS011;43322;52.230;5.702;2023-08-17T08:04:49;4.10;;;2.25;;
23718;SDS011;43322;52.230;5.702;2023-08-17T08:07:16;3.00;;;2.20;;
23718;SDS011;43322;52.230;5.702;2023-08-17T08:09:42;5.43;;;2.67;;
23718;SDS011;43322;52.230;5.702;2023-08-17T08:12:09;5.45;;;2.45;;
23718;SDS011;43322;52.230;5.702;2023-08-17T08:14:37;4.10;;;2.47;;
23718;SDS011;43322;52.230;5.702;2023-08-17T08:17:04;2.67;;;2.05;;
23718;SDS011;43322;52.230;5.702;2023-08-17T08:19:30;4.82;;;2.47;;
23718;SDS011;43322;52.230;5.702;2023-08-17T08:21:57;4.60;;;2.40;;
23718;SDS011;43322;52.230;5.702;2023-08-17T08:24:24;3.65;;;2.28;;
23718;SDS011;43322;52.230;5.702;2023-08-17T08:26:56;5.85;;;2.53;;
23718;SDS011;43322;52.230;5.702;2023-08-17T08:29:22;7.07;;;2.40;;
23718;SDS011;43322;52.230;5.702;2023-08-17T08:31:50;6.28;;;2.30;;
23718;SDS011;43322;52.230;5.702;2023-08-17T08:34:17;6.93;;;2.22;;
23718;SDS011;43322;52.230;5.702;2023-08-17T08:36:44;5.63;;;2.15;;
23718;SDS011;43322;52.230;5.702;2023-08-17T08:39:10;2.95;;;2.10;;
23718;SDS011;43322;52.230;5.702;2023-08-17T08:41:38;4.80;;;2.72;;
23718;SDS011;43322;52.230;5.702;2023-08-17T08:44:05;3.88;;;2.33;;
23718;SDS011;43322;52.230;5.702;2023-08-17T08:46:32;5.40;;;2.08;;
23718;SDS011;43322;52.230;5.702;2023-08-17T08:49:01;6.10;;;2.30;;
23718;SDS011;43322;52.230;5.702;2023-08-17T08:51:31;3.30;;;2.42;;
23718;SDS011;43322;52.230;5.702;2023-08-17T08:54:03;6.00;;;2.63;;
23718;SDS011;43322;52.230;5.702;2023-08-17T09:01:50;5.95;;;2.55;;
23718;SDS011;43322;52.230;5.702;2023-08-17T09:04:19;6.82;;;3.22;;
23718;SDS011;43322;52.230;5.702;2023-08-17T09:06:45;8.20;;;3.72;;
23718;SDS011;43322;52.230;5.702;2023-08-17T09:09:13;7.15;;;2.90;;
23718;SDS011;43322;52.230;5.702;2023-08-17T09:11:41;5.03;;;2.63;;
23718;SDS011;43322;52.230;5.702;2023-08-17T09:14:08;7.47;;;2.90;;
23718;SDS011;43322;52.230;5.702;2023-08-17T09:16:35;4.53;;;2.90;;
23718;SDS011;43322;52.230;5.702;2023-08-17T09:19:01;5.05;;;2.72;;
23718;SDS011;43322;52.230;5.702;2023-08-17T09:21:32;3.53;;;2.75;;
23718;SDS011;43322;52.230;5.702;2023-08-17T09:23:59;7.07;;;3.08;;
23718;SDS011;43322;52.230;5.702;2023-08-17T09:26:29;4.50;;;2.45;;
23718;SDS011;43322;52.230;5.702;2023-08-17T09:28:57;4.70;;;3.00;;
23718;SDS011;43322;52.230;5.702;2023-08-17T09:31:24;7.25;;;3.20;;
23718;SDS011;43322;52.230;5.702;2023-08-17T09:33:51;4.78;;;3.65;;
23718;SDS011;43322;52.230;5.702;2023-08-17T09:36:19;12.15;;;3.38;;
23718;SDS011;43322;52.230;5.702;2023-08-17T09:38:48;6.25;;;3.72;;
23718;SDS011;43322;52.230;5.702;2023-08-17T09:41:16;7.30;;;3.40;;
23718;SDS011;43322;52.230;5.702;2023-08-17T09:43:43;5.05;;;3.15;;
23718;SDS011;43322;52.230;5.702;2023-08-17T09:46:11;8.25;;;3.50;;
23718;SDS011;43322;52.230;5.702;2023-08-17T09:48:37;6.93;;;3.38;;
23718;SDS011;43322;52.230;5.702;2023-08-17T09:51:04;5.88;;;3.80;;
23718;SDS011;43322;52.230;5.702;2023-08-17T09:53:34;8.32;;;3.55;;
23718;SDS011;43322;52.230;5.702;2023-08-17T09:56:05;7.55;;;3.83;;
23718;SDS011;43322;52.230;5.702;2023-08-17T09:58:35;7.65;;;4.00;;
23718;SDS011;43322;52.230;5.702;2023-08-17T10:01:03;6.53;;;3.80;;
23718;SDS011;43322;52.230;5.702;2023-08-17T10:03:31;5.28;;;3.40;;
23718;SDS011;43322;52.230;5.702;2023-08-17T10:06:01;7.15;;;4.13;;
23718;SDS011;43322;52.230;5.702;2023-08-17T10:08:32;10.27;;;3.63;;
23718;SDS011;43322;52.230;5.702;2023-08-17T10:11:02;8.23;;;4.35;;
23718;SDS011;43322;52.230;5.702;2023-08-17T10:13:34;8.32;;;4.68;;
23718;SDS011;43322;52.230;5.702;2023-08-17T10:16:06;8.50;;;4.40;;
23718;SDS011;43322;52.230;5.702;2023-08-17T10:18:41;6.28;;;4.13;;
23718;SDS011;43322;52.230;5.702;2023-08-17T10:21:17;4.57;;;3.50;;
23718;SDS011;43322;52.230;5.702;2023-08-17T10:23:49;6.00;;;3.65;;
23718;SDS011;43322;52.230;5.702;2023-08-17T10:26:17;12.00;;;4.18;;
23718;SDS011;43322;52.230;5.702;2023-08-17T10:28:44;8.93;;;4.45;;
23718;SDS011;43322;52.230;5.702;2023-08-17T10:31:12;6.15;;;4.10;;
23718;SDS011;43322;52.230;5.702;2023-08-17T10:33:40;6.03;;;4.07;;
23718;SDS011;43322;52.230;5.702;2023-08-17T10:36:09;6.55;;;4.57;;
23718;SDS011;43322;52.230;5.702;2023-08-17T10:38:37;7.63;;;4.32;;
23718;SDS011;43322;52.230;5.702;2023-08-17T10:41:08;9.48;;;4.03;;
23718;SDS011;43322;52.230;5.702;2023-08-17T10:43:45;8.30;;;4.53;;
23718;SDS011;43322;52.230;5.702;2023-08-17T10:46:19;7.65;;;4.10;;
23718;SDS011;43322;52.230;5.702;2023-08-17T10:48:46;6.93;;;4.25;;
23718;SDS011;43322;52.230;5.702;2023-08-17T10:51:13;6.63;;;3.67;;
23718;SDS011;43322;52.230;5.702;2023-08-17T10:53:42;7.50;;;4.05;;
23718;SDS011;43322;52.230;5.702;2023-08-17T10:56:13;10.70;;;4.30;;
23718;SDS011;43322;52.230;5.702;2023-08-17T10:58:41;8.48;;;4.30;;
23718;SDS011;43322;52.230;5.702;2023-08-17T11:01:10;8.13;;;4.40;;
23718;SDS011;43322;52.230;5.702;2023-08-17T11:03:39;9.50;;;4.43;;
23718;SDS011;43322;52.230;5.702;2023-08-17T11:06:15;8.00;;;4.03;;
23718;SDS011;43322;52.230;5.702;2023-08-17T11:08:52;7.72;;;4.03;;
23718;SDS011;43322;52.230;5.702;2023-08-17T11:11:20;6.68;;;4.00;;
23718;SDS011;43322;52.230;5.702;2023-08-17T11:13:48;4.63;;;3.90;;
23718;SDS011;43322;52.230;5.702;2023-08-17T11:16:17;7.43;;;4.20;;
23718;SDS011;43322;52.230;5.702;2023-08-17T11:18:45;6.45;;;4.55;;
23718;SDS011;43322;52.230;5.702;2023-08-17T11:21:12;5.68;;;4.00;;
23718;SDS011;43322;52.230;5.702;2023-08-17T11:23:40;6.47;;;3.90;;
23718;SDS011;43322;52.230;5.702;2023-08-17T11:26:07;6.18;;;4.10;;
23718;SDS011;43322;52.230;5.702;2023-08-17T11:28:35;7.82;;;3.97;;
23718;SDS011;43322;52.230;5.702;2023-08-17T11:31:04;7.00;;;4.45;;
23718;SDS011;43322;52.230;5.702;2023-08-17T11:33:35;8.48;;;4.40;;
23718;SDS011;43322;52.230;5.702;2023-08-17T11:36:04;4.30;;;3.80;;
23718;SDS011;43322;52.230;5.702;2023-08-17T11:38:34;4.18;;;3.80;;
23718;SDS011;43322;52.230;5.702;2023-08-17T11:41:03;7.43;;;3.85;;
23718;SDS011;43322;52.230;5.702;2023-08-17T11:43:31;4.97;;;3.83;;
23718;SDS011;43322;52.230;5.702;2023-08-17T11:45:59;7.50;;;3.83;;
23718;SDS011;43322;52.230;5.702;2023-08-17T11:48:26;4.35;;;3.72;;
23718;SDS011;43322;52.230;5.702;2023-08-17T11:50:55;7.20;;;4.15;;
23718;SDS011;43322;52.230;5.702;2023-08-17T11:53:23;6.18;;;4.10;;
23718;SDS011;43322;52.230;5.702;2023-08-17T11:55:49;9.77;;;3.75;;
23718;SDS011;43322;52.230;5.702;2023-08-17T11:58:17;6.40;;;4.30;;
23718;SDS011;43322;52.230;5.702;2023-08-17T12:00:43;5.80;;;4.20;;
23718;SDS011;43322;52.230;5.702;2023-08-17T12:03:12;4.50;;;3.83;;
23718;SDS011;43322;52.230;5.702;2023-08-17T12:05:40;6.55;;;3.92;;
23718;SDS011;43322;52.230;5.702;2023-08-17T12:08:09;6.18;;;4.13;;
23718;SDS011;43322;52.230;5.702;2023-08-17T12:10:36;5.10;;;4.60;;
23718;SDS011;43322;52.230;5.702;2023-08-17T12:13:04;9.18;;;4.43;;
23718;SDS011;43322;52.230;5.702;2023-08-17T12:15:31;4.75;;;4.32;;
23718;SDS011;43322;52.230;5.702;2023-08-17T12:17:58;7.13;;;4.45;;
23718;SDS011;43322;52.230;5.702;2023-08-17T12:20:26;5.38;;;3.80;;
23718;SDS011;43322;52.230;5.702;2023-08-17T12:22:56;4.78;;;4.28;;
23718;SDS011;43322;52.230;5.702;2023-08-17T12:25:25;8.55;;;3.90;;
23718;SDS011;43322;52.230;5.702;2023-08-17T12:27:52;4.35;;;3.80;;
23718;SDS011;43322;52.230;5.702;2023-08-17T12:30:25;3.60;;;3.30;;
23718;SDS011;43322;52.230;5.702;2023-08-17T12:32:53;5.60;;;4.75;;
23718;SDS011;43322;52.230;5.702;2023-08-17T12:35:21;5.13;;;4.00;;
23718;SDS011;43322;52.230;5.702;2023-08-17T12:37:49;5.68;;;4.05;;
23718;SDS011;43322;52.230;5.702;2023-08-17T12:40:16;6.07;;;4.15;;
23718;SDS011;43322;52.230;5.702;2023-08-17T12:42:44;7.97;;;3.97;;
23718;SDS011;43322;52.230;5.702;2023-08-17T12:45:11;3.90;;;3.60;;
23718;SDS011;43322;52.230;5.702;2023-08-17T12:47:38;4.57;;;4.10;;
23718;SDS011;43322;52.230;5.702;2023-08-17T12:50:05;11.88;;;4.32;;
23718;SDS011;43322;52.230;5.702;2023-08-17T12:52:32;4.18;;;3.88;;
23718;SDS011;43322;52.230;5.702;2023-08-17T12:54:59;3.47;;;3.28;;
23718;SDS011;43322;52.230;5.702;2023-08-17T12:57:26;3.85;;;3.58;;
23718;SDS011;43322;52.230;5.702;2023-08-17T12:59:54;7.57;;;3.95;;
23718;SDS011;43322;52.230;5.702;2023-08-17T13:02:21;6.00;;;3.60;;
23718;SDS011;43322;52.230;5.702;2023-08-17T13:04:47;4.65;;;3.97;;
23718;SDS011;43322;52.230;5.702;2023-08-17T13:07:14;3.85;;;3.50;;
23718;SDS011;43322;52.230;5.702;2023-08-17T13:09:41;5.70;;;4.50;;
23718;SDS011;43322;52.230;5.702;2023-08-17T13:12:10;4.93;;;4.05;;
23718;SDS011;43322;52.230;5.702;2023-08-17T13:14:37;6.28;;;4.43;;
23718;SDS011;43322;52.230;5.702;2023-08-17T13:17:05;7.55;;;4.60;;
23718;SDS011;43322;52.230;5.702;2023-08-17T13:19:31;5.15;;;4.63;;
23718;SDS011;43322;52.230;5.702;2023-08-17T13:22:00;7.22;;;5.10;;
23718;SDS011;43322;52.230;5.702;2023-08-17T13:24:28;18.38;;;5.55;;
23718;SDS011;43322;52.230;5.702;2023-08-17T13:26:55;11.07;;;5.10;;
23718;SDS011;43322;52.230;5.702;2023-08-17T13:29:22;27.48;;;6.15;;
23718;SDS011;43322;52.230;5.702;2023-08-17T13:31:49;5.22;;;4.20;;
23718;SDS011;43322;52.230;5.702;2023-08-17T13:34:18;5.75;;;5.25;;
23718;SDS011;43322;52.230;5.702;2023-08-17T13:36:44;15.10;;;6.47;;
23718;SDS011;43322;52.230;5.702;2023-08-17T13:39:11;7.72;;;5.32;;
23718;SDS011;43322;52.230;5.702;2023-08-17T13:41:38;14.18;;;5.35;;
23718;SDS011;43322;52.230;5.702;2023-08-17T13:44:06;8.02;;;5.53;;
23718;SDS011;43322;52.230;5.702;2023-08-17T13:46:32;7.57;;;5.40;;
23718;SDS011;43322;52.230;5.702;2023-08-17T13:48:59;11.65;;;5.88;;
23718;SDS011;43322;52.230;5.702;2023-08-17T13:51:27;29.15;;;6.93;;
23718;SDS011;43322;52.230;5.702;2023-08-17T13:53:54;13.52;;;4.80;;
23718;SDS011;43322;52.230;5.702;2023-08-17T13:56:20;5.32;;;4.88;;
23718;SDS011;43322;52.230;5.702;2023-08-17T13:58:47;58.55;;;9.52;;
23718;SDS011;43322;52.230;5.702;2023-08-17T14:01:14;9.18;;;5.10;;
23718;SDS011;43322;52.230;5.702;2023-08-17T14:03:42;23.77;;;7.57;;
23718;SDS011;43322;52.230;5.702;2023-08-17T14:06:08;10.98;;;5.80;;
23718;SDS011;43322;52.230;5.702;2023-08-17T14:08:37;10.30;;;6.05;;
23718;SDS011;43322;52.230;5.702;2023-08-17T14:11:03;5.57;;;5.18;;
23718;SDS011;43322;52.230;5.702;2023-08-17T14:13:31;5.53;;;5.03;;
23718;SDS011;43322;52.230;5.702;2023-08-17T14:15:58;5.90;;;5.32;;
23718;SDS011;43322;52.230;5.702;2023-08-17T14:18:24;5.60;;;5.07;;
23718;SDS011;43322;52.230;5.702;2023-08-17T14:20:51;5.78;;;5.22;;
23718;SDS011;43322;52.230;5.702;2023-08-17T14:23:18;6.15;;;5.55;;
23718;SDS011;43322;52.230;5.702;2023-08-17T14:25:46;6.63;;;5.55;;
23718;SDS011;43322;52.230;5.702;2023-08-17T14:28:13;6.20;;;5.60;;
23718;SDS011;43322;52.230;5.702;2023-08-17T14:30:39;7.40;;;5.95;;
23718;SDS011;43322;52.230;5.702;2023-08-17T14:33:06;5.78;;;5.28;;
23718;SDS011;43322;52.230;5.702;2023-08-17T14:35:33;7.47;;;6.80;;
23718;SDS011;43322;52.230;5.702;2023-08-17T14:38:00;6.78;;;6.18;;
23718;SDS011;43322;52.230;5.702;2023-08-17T14:40:27;8.15;;;6.03;;
23718;SDS011;43322;52.230;5.702;2023-08-17T14:42:55;6.60;;;5.72;;
23718;SDS011;43322;52.230;5.702;2023-08-17T14:45:22;9.00;;;6.20;;
23718;SDS011;43322;52.230;5.702;2023-08-17T14:47:48;5.97;;;5.47;;
23718;SDS011;43322;52.230;5.702;2023-08-17T14:50:15;7.53;;;6.40;;
23718;SDS011;43322;52.230;5.702;2023-08-17T14:52:42;7.55;;;6.00;;
23718;SDS011;43322;52.230;5.702;2023-08-17T14:55:09;10.27;;;5.82;;